createdAt,value
2017-09-07T00:01:59.544Z,2.60
2017-09-07T00:04:26.999Z,2.20
2017-09-07T00:06:54.438Z,2.30
2017-09-07T00:09:21.885Z,2.60
2017-09-07T00:11:49.309Z,2.30
2017-09-07T00:14:16.767Z,2.83
2017-09-07T00:17:21.104Z,2.40
2017-09-07T00:19:49.314Z,2.40
2017-09-07T00:22:16.764Z,2.10
2017-09-07T00:24:44.204Z,2.73
2017-09-07T00:27:11.635Z,2.60
2017-09-07T00:29:39.087Z,2.37
2017-09-07T00:32:06.527Z,2.50
2017-09-07T00:34:33.976Z,2.40
2017-09-07T00:37:01.415Z,2.10
2017-09-07T00:39:28.863Z,2.90
2017-09-07T00:44:30.195Z,2.30
2017-09-07T00:46:58.409Z,2.13
2017-09-07T00:49:25.854Z,1.93
2017-09-07T00:51:53.299Z,2.40
2017-09-07T00:54:20.747Z,2.30
2017-09-07T00:56:48.191Z,2.10
2017-09-07T00:59:16.406Z,2.20
2017-09-07T01:01:43.854Z,2.63
2017-09-07T01:04:11.296Z,2.50
2017-09-07T01:06:38.735Z,2.47
2017-09-07T01:09:06.943Z,2.10
2017-09-07T01:11:34.394Z,2.43
2017-09-07T01:14:01.839Z,2.50
2017-09-07T01:16:29.283Z,2.23
2017-09-07T01:18:57.491Z,2.30
2017-09-07T01:21:24.934Z,2.40
2017-09-07T01:23:52.379Z,3.60
2017-09-07T01:26:19.827Z,2.50
2017-09-07T01:28:47.263Z,2.20
2017-09-07T01:31:14.711Z,2.47
2017-09-07T01:33:42.915Z,2.10
2017-09-07T01:36:10.363Z,2.10
2017-09-07T01:38:37.795Z,2.27
2017-09-07T01:41:05.240Z,2.10
2017-09-07T01:43:32.679Z,2.67
2017-09-07T01:46:00.122Z,2.63
2017-09-07T01:48:39.960Z,2.30
2017-09-07T01:51:07.415Z,2.20
2017-09-07T01:53:34.860Z,2.03
2017-09-07T01:56:02.298Z,2.10
2017-09-07T01:58:30.514Z,2.40
2017-09-07T02:00:57.959Z,2.83
2017-09-07T02:03:25.399Z,2.30
2017-09-07T02:05:52.842Z,2.60
2017-09-07T02:08:21.047Z,2.40
2017-09-07T02:10:48.519Z,2.40
2017-09-07T02:13:15.954Z,2.50
2017-09-07T02:15:43.392Z,2.20
2017-09-07T02:18:10.835Z,3.67
2017-09-07T02:20:39.039Z,3.20
2017-09-07T02:23:06.489Z,2.60
2017-09-07T02:25:33.936Z,2.50
2017-09-07T02:28:01.384Z,2.30
2017-09-07T02:30:28.822Z,2.80
2017-09-07T02:32:57.038Z,2.67
2017-09-07T02:35:24.482Z,2.80
2017-09-07T02:37:51.931Z,3.07
2017-09-07T02:40:19.371Z,2.73
2017-09-07T02:42:46.816Z,2.70
2017-09-07T02:45:15.024Z,2.60
2017-09-07T02:47:42.455Z,2.90
2017-09-07T02:50:10.667Z,2.50
2017-09-07T02:52:38.110Z,2.70
2017-09-07T02:55:05.556Z,2.80
2017-09-07T02:57:32.997Z,3.23
2017-09-07T03:00:01.210Z,3.23
2017-09-07T03:02:28.646Z,2.80
2017-09-07T03:04:56.087Z,2.90
2017-09-07T03:07:24.295Z,3.17
2017-09-07T03:09:51.751Z,3.20
2017-09-07T03:12:19.191Z,3.37
2017-09-07T03:14:46.653Z,2.50
2017-09-07T03:17:14.835Z,2.20
2017-09-07T03:19:42.276Z,2.50
2017-09-07T03:22:09.711Z,2.70
2017-09-07T03:24:37.939Z,3.10
2017-09-07T03:27:05.380Z,2.30
2017-09-07T03:29:32.827Z,3.00
2017-09-07T03:32:00.305Z,3.80
2017-09-07T03:34:27.710Z,2.47
2017-09-07T03:36:55.931Z,2.83
2017-09-07T03:39:23.374Z,2.80
2017-09-07T03:41:50.826Z,2.50
2017-09-07T03:44:18.258Z,3.00
2017-09-07T03:46:45.702Z,3.10
2017-09-07T03:49:13.919Z,2.50
2017-09-07T03:51:41.371Z,2.80
2017-09-07T03:54:08.807Z,2.30
2017-09-07T03:56:36.247Z,2.40
2017-09-07T03:59:04.453Z,2.50
2017-09-07T04:01:31.920Z,2.63
2017-09-07T04:03:59.365Z,3.07
2017-09-07T04:06:26.800Z,2.87
2017-09-07T04:08:55.010Z,2.57
2017-09-07T04:11:22.455Z,2.67
2017-09-07T04:13:49.907Z,2.90
2017-09-07T04:16:17.342Z,2.63
2017-09-07T04:18:45.555Z,3.13
2017-09-07T04:21:12.998Z,3.43
2017-09-07T04:23:40.455Z,2.83
2017-09-07T04:26:07.896Z,2.90
2017-09-07T04:28:35.334Z,3.03
2017-09-07T04:31:02.780Z,2.30
2017-09-07T04:33:31.003Z,2.40
2017-09-07T04:35:58.439Z,2.80
2017-09-07T04:38:25.887Z,2.30
2017-09-07T04:40:53.323Z,2.97
2017-09-07T04:43:21.541Z,2.40
2017-09-07T04:45:48.984Z,2.13
2017-09-07T04:48:16.415Z,3.40
2017-09-07T04:50:44.627Z,2.70
2017-09-07T04:53:12.067Z,2.70
2017-09-07T04:55:39.515Z,3.20
2017-09-07T04:58:06.955Z,2.83
2017-09-07T05:00:35.172Z,2.63
2017-09-07T05:03:02.617Z,3.50
2017-09-07T05:05:30.055Z,2.53
2017-09-07T05:07:57.495Z,3.00
2017-09-07T05:10:25.708Z,3.20
2017-09-07T05:12:53.146Z,3.17
2017-09-07T05:15:20.600Z,2.70
2017-09-07T05:17:48.062Z,2.80
2017-09-07T05:20:15.534Z,3.10
2017-09-07T05:22:43.183Z,2.90
2017-09-07T05:25:10.619Z,3.43
2017-09-07T05:27:39.268Z,2.70
2017-09-07T05:30:06.717Z,3.23
2017-09-07T05:32:34.178Z,2.90
2017-09-07T05:35:01.624Z,2.97
2017-09-07T05:37:29.070Z,2.70
2017-09-07T05:39:56.515Z,3.10
2017-09-07T05:42:23.971Z,2.80
2017-09-07T05:44:51.410Z,2.73
2017-09-07T05:47:18.859Z,2.67
2017-09-07T05:49:47.072Z,3.70
2017-09-07T05:52:14.522Z,2.60
2017-09-07T05:54:41.972Z,2.70
2017-09-07T05:57:09.424Z,2.63
2017-09-07T05:59:36.863Z,3.30
2017-09-07T06:02:04.316Z,3.20
2017-09-07T06:04:32.527Z,2.63
2017-09-07T06:07:00.978Z,2.63
2017-09-07T06:09:28.414Z,2.53
2017-09-07T06:11:56.619Z,2.80
2017-09-07T06:14:24.070Z,2.77
2017-09-07T06:16:51.507Z,2.60
2017-09-07T06:19:18.959Z,2.33
2017-09-07T06:21:47.162Z,2.80
2017-09-07T06:24:14.623Z,2.83
2017-09-07T06:26:42.076Z,3.10
2017-09-07T06:29:09.538Z,2.83
2017-09-07T06:31:37.001Z,3.23
2017-09-07T06:34:04.419Z,2.33
2017-09-07T06:36:32.632Z,2.83
2017-09-07T06:39:00.076Z,3.80
2017-09-07T06:41:27.529Z,2.93
2017-09-07T06:43:54.964Z,2.93
2017-09-07T06:46:22.417Z,3.10
2017-09-07T06:48:50.633Z,3.47
2017-09-07T06:51:18.091Z,3.80
2017-09-07T06:53:45.546Z,3.53
2017-09-07T06:56:12.987Z,3.50
2017-09-07T06:58:40.448Z,4.37
2017-09-07T07:01:07.894Z,4.00
2017-09-07T07:03:35.351Z,4.30
2017-09-07T07:06:02.834Z,4.80
2017-09-07T07:08:30.279Z,3.33
2017-09-07T07:10:57.724Z,3.67
2017-09-07T07:13:25.186Z,3.90
2017-09-07T07:15:52.639Z,4.23
2017-09-07T07:18:20.127Z,3.50
2017-09-07T07:20:47.550Z,4.37
2017-09-07T07:23:15.003Z,4.10
2017-09-07T07:25:42.457Z,4.40
2017-09-07T07:28:09.915Z,3.93
2017-09-07T07:30:37.359Z,4.70
2017-09-07T07:33:04.807Z,4.63
2017-09-07T07:35:32.252Z,4.20
2017-09-07T07:37:59.700Z,5.20
2017-09-07T07:40:27.927Z,4.13
2017-09-07T07:42:55.380Z,4.17
2017-09-07T07:45:22.840Z,4.57
2017-09-07T07:47:50.284Z,5.30
2017-09-07T07:50:17.740Z,4.77
2017-09-07T07:52:45.181Z,4.43
2017-09-07T07:55:12.635Z,4.73
2017-09-07T07:57:40.084Z,5.10
2017-09-07T08:00:07.540Z,5.47
2017-09-07T08:02:34.979Z,4.37
2017-09-07T08:05:03.198Z,4.13
2017-09-07T08:07:30.640Z,4.70
2017-09-07T08:09:58.107Z,5.20
2017-09-07T08:12:25.550Z,4.53
2017-09-07T08:14:52.996Z,4.93
2017-09-07T08:17:20.441Z,4.83
2017-09-07T08:19:47.888Z,4.77
2017-09-07T08:22:16.102Z,4.63
2017-09-07T08:24:43.552Z,5.50
2017-09-07T08:27:10.994Z,4.80
2017-09-07T08:29:38.435Z,5.20
2017-09-07T08:32:06.655Z,4.23
2017-09-07T08:34:34.104Z,4.13
2017-09-07T08:37:01.561Z,4.33
2017-09-07T08:39:28.999Z,5.30
2017-09-07T08:41:56.452Z,4.80
2017-09-07T08:44:23.889Z,5.47
2017-09-07T08:46:52.110Z,4.80
2017-09-07T08:49:19.657Z,5.30
2017-09-07T08:51:47.095Z,4.40
2017-09-07T08:54:14.538Z,5.37
2017-09-07T08:56:41.990Z,4.30
2017-09-07T08:59:10.204Z,5.10
2017-09-07T09:01:37.678Z,5.00
2017-09-07T09:04:05.127Z,4.77
2017-09-07T09:06:32.572Z,4.27
2017-09-07T09:09:00.024Z,4.30
2017-09-07T09:11:27.467Z,4.43
2017-09-07T09:13:54.920Z,5.00
2017-09-07T09:16:22.355Z,4.87
2017-09-07T09:18:50.572Z,5.43
2017-09-07T09:21:18.029Z,5.20
2017-09-07T09:23:45.479Z,4.20
2017-09-07T09:26:12.942Z,4.63
2017-09-07T09:28:40.927Z,4.63
2017-09-07T09:31:08.375Z,4.40
2017-09-07T09:33:35.844Z,4.80
2017-09-07T09:36:03.287Z,4.90
2017-09-07T09:38:30.755Z,4.83
2017-09-07T09:40:58.213Z,5.00
2017-09-07T09:43:25.671Z,5.50
2017-09-07T09:45:53.132Z,5.20
2017-09-07T09:48:20.587Z,4.20
2017-09-07T09:50:48.044Z,4.93
2017-09-07T09:53:15.491Z,4.63
2017-09-07T09:55:42.938Z,4.80
2017-09-07T09:58:10.391Z,4.30
2017-09-07T10:00:37.849Z,4.67
2017-09-07T10:03:05.293Z,4.90
2017-09-07T10:05:32.747Z,4.40
2017-09-07T10:08:00.191Z,5.30
2017-09-07T10:10:27.640Z,5.57
2017-09-07T10:12:55.087Z,4.17
2017-09-07T10:15:22.540Z,4.40
2017-09-07T10:17:49.985Z,4.33
2017-09-07T10:20:17.432Z,4.97
2017-09-07T10:22:44.879Z,4.83
2017-09-07T10:25:12.347Z,3.73
2017-09-07T10:27:40.574Z,4.23
2017-09-07T10:30:08.027Z,5.00
2017-09-07T10:32:35.484Z,4.87
2017-09-07T10:35:02.940Z,4.77
2017-09-07T10:37:30.396Z,5.03
2017-09-07T10:39:57.853Z,5.53
2017-09-07T10:42:25.307Z,5.20
2017-09-07T10:44:52.765Z,5.90
2017-09-07T10:47:20.223Z,5.30
2017-09-07T10:49:47.679Z,6.00
2017-09-07T10:52:15.136Z,6.30
2017-09-07T10:54:42.588Z,5.60
2017-09-07T10:57:10.047Z,5.00
2017-09-07T10:59:37.518Z,5.00
2017-09-07T11:02:04.949Z,5.50
2017-09-07T11:04:32.395Z,5.27
2017-09-07T11:07:00.610Z,5.30
2017-09-07T11:09:28.048Z,4.90
2017-09-07T11:11:55.527Z,4.70
2017-09-07T11:14:22.970Z,4.50
2017-09-07T11:16:50.410Z,5.57
2017-09-07T11:19:17.871Z,5.40
2017-09-07T11:21:45.312Z,4.40
2017-09-07T11:24:12.759Z,5.83
2017-09-07T11:26:40.204Z,4.20
2017-09-07T11:29:08.423Z,5.10
2017-09-07T11:31:35.869Z,3.80
2017-09-07T11:34:03.323Z,5.07
2017-09-07T11:36:30.780Z,5.10
2017-09-07T11:38:58.236Z,4.77
2017-09-07T11:41:25.692Z,4.20
2017-09-07T11:43:53.148Z,4.70
2017-09-07T11:46:20.607Z,4.47
2017-09-07T11:48:48.074Z,4.97
2017-09-07T11:51:15.520Z,4.27
2017-09-07T11:53:42.971Z,4.47
2017-09-07T11:56:10.431Z,4.80
2017-09-07T11:58:37.871Z,4.90
2017-09-07T12:01:05.315Z,4.23
2017-09-07T12:03:33.526Z,4.60
2017-09-07T12:06:00.974Z,4.40
2017-09-07T12:08:28.420Z,4.30
2017-09-07T12:10:55.883Z,4.67
2017-09-07T12:13:23.333Z,4.50
2017-09-07T12:15:50.780Z,4.80
2017-09-07T12:18:18.223Z,5.03
2017-09-07T12:20:45.674Z,3.90
2017-09-07T12:23:13.880Z,4.30
2017-09-07T12:25:41.337Z,4.10
2017-09-07T12:28:08.796Z,4.47
2017-09-07T12:30:36.257Z,4.77
2017-09-07T12:33:03.706Z,4.57
2017-09-07T12:35:31.180Z,3.80
2017-09-07T12:37:58.619Z,3.83
2017-09-07T12:40:26.076Z,4.30
2017-09-07T12:42:53.536Z,4.20
2017-09-07T12:45:20.981Z,3.73
2017-09-07T12:47:48.437Z,5.30
2017-09-07T12:50:15.878Z,4.40
2017-09-07T12:52:43.333Z,4.73
2017-09-07T12:55:10.770Z,4.13
2017-09-07T12:57:38.999Z,3.60
2017-09-07T13:00:06.444Z,3.67
2017-09-07T13:02:33.899Z,3.80
2017-09-07T13:05:01.339Z,3.57
2017-09-07T13:07:28.796Z,4.37
2017-09-07T13:09:56.239Z,4.33
2017-09-07T13:12:23.687Z,4.27
2017-09-07T13:14:51.130Z,4.03
2017-09-07T13:17:19.366Z,4.50
2017-09-07T13:19:46.807Z,4.00
2017-09-07T13:22:14.258Z,4.03
2017-09-07T13:24:41.718Z,4.30
2017-09-07T13:27:09.171Z,3.87
2017-09-07T13:29:36.626Z,4.33
2017-09-07T13:32:04.066Z,4.03
2017-09-07T13:34:32.274Z,4.13
2017-09-07T13:36:59.720Z,4.20
2017-09-07T13:39:27.176Z,4.60
2017-09-07T13:41:54.629Z,4.70
2017-09-07T13:44:22.081Z,4.03
2017-09-07T13:46:49.515Z,4.13
2017-09-07T13:49:17.744Z,4.00
2017-09-07T13:51:45.186Z,4.20
2017-09-07T13:54:12.637Z,3.63
2017-09-07T13:56:40.086Z,4.40
2017-09-07T13:59:07.561Z,3.43
2017-09-07T14:01:34.999Z,3.43
2017-09-07T14:04:02.440Z,4.30
2017-09-07T14:06:29.887Z,4.50
2017-09-07T14:08:57.327Z,4.03
2017-09-07T14:11:25.543Z,3.97
2017-09-07T14:13:52.994Z,3.63
2017-09-07T14:16:20.457Z,3.97
2017-09-07T14:18:47.908Z,3.67
2017-09-07T14:21:15.367Z,4.10
2017-09-07T14:23:42.807Z,3.60
2017-09-07T14:26:10.251Z,3.57
2017-09-07T14:28:37.713Z,3.70
2017-09-07T14:31:05.168Z,3.57
2017-09-07T14:33:33.385Z,3.33
2017-09-07T14:36:00.836Z,3.70
2017-09-07T14:38:28.274Z,3.80
2017-09-07T14:40:55.736Z,3.40
2017-09-07T14:43:23.187Z,3.80
2017-09-07T14:45:50.655Z,3.50
2017-09-07T14:48:18.099Z,4.73
2017-09-07T14:50:45.550Z,3.23
2017-09-07T14:53:12.987Z,3.60
2017-09-07T14:55:40.428Z,4.30
2017-09-07T14:58:08.642Z,3.90
2017-09-07T15:00:36.097Z,3.43
2017-09-07T15:03:03.556Z,4.20
2017-09-07T15:05:30.999Z,3.30
2017-09-07T15:07:58.456Z,3.50
2017-09-07T15:10:25.887Z,3.20
2017-09-07T15:12:54.112Z,3.43
2017-09-07T15:15:21.557Z,3.90
2017-09-07T15:17:49.011Z,3.83
2017-09-07T15:20:16.463Z,4.47
2017-09-07T15:22:43.923Z,3.63
2017-09-07T15:25:11.364Z,3.73
2017-09-07T15:27:38.808Z,3.70
2017-09-07T15:30:06.261Z,4.50
2017-09-07T15:32:34.834Z,4.60
2017-09-07T15:35:03.151Z,3.40
2017-09-07T15:37:30.603Z,4.07
2017-09-07T15:39:58.062Z,4.57
2017-09-07T15:42:25.502Z,3.30
2017-09-07T15:44:52.951Z,3.93
2017-09-07T15:47:20.399Z,5.47
2017-09-07T15:49:47.850Z,3.60
2017-09-07T15:52:16.060Z,4.00
2017-09-07T15:54:43.520Z,3.63
2017-09-07T15:57:10.967Z,3.67
2017-09-07T15:59:38.414Z,4.50
2017-09-07T16:02:05.856Z,4.70
2017-09-07T16:04:34.067Z,5.10
2017-09-07T16:07:01.516Z,4.67
2017-09-07T16:09:28.978Z,3.60
2017-09-07T16:11:56.424Z,3.40
2017-09-07T16:14:23.868Z,4.00
2017-09-07T16:16:51.327Z,4.30
2017-09-07T16:19:18.767Z,4.13
2017-09-07T16:21:46.979Z,4.10
2017-09-07T16:24:14.424Z,3.33
2017-09-07T16:26:41.879Z,3.57
2017-09-07T16:29:09.323Z,3.67
2017-09-07T16:31:36.779Z,3.33
2017-09-07T16:34:04.223Z,3.63
2017-09-07T16:36:32.444Z,3.93
2017-09-07T16:38:59.891Z,4.07
2017-09-07T16:41:27.348Z,4.07
2017-09-07T16:43:54.791Z,4.00
2017-09-07T16:46:22.259Z,3.50
2017-09-07T16:48:49.703Z,3.63
2017-09-07T16:51:17.155Z,3.70
2017-09-07T16:53:44.608Z,3.73
2017-09-07T16:56:12.043Z,3.47
2017-09-07T16:58:40.794Z,3.13
2017-09-07T17:01:08.247Z,3.17
2017-09-07T17:03:35.690Z,4.50
2017-09-07T17:06:03.139Z,3.67
2017-09-07T17:08:30.595Z,4.20
2017-09-07T17:10:58.038Z,4.43
2017-09-07T17:13:25.496Z,4.17
2017-09-07T17:15:52.935Z,3.53
2017-09-07T17:18:20.408Z,4.23
2017-09-07T17:20:47.861Z,4.17
2017-09-07T17:23:15.296Z,3.50
2017-09-07T17:25:43.506Z,4.03
2017-09-07T17:28:10.962Z,3.70
2017-09-07T17:30:38.428Z,5.10
2017-09-07T17:33:05.864Z,4.20
2017-09-07T17:35:33.320Z,4.67
2017-09-07T17:38:00.759Z,4.83
2017-09-07T17:40:28.206Z,3.60
2017-09-07T17:42:55.653Z,4.00
2017-09-07T17:45:23.914Z,5.20
2017-09-07T17:47:52.135Z,5.43
2017-09-07T17:50:19.659Z,4.83
2017-09-07T17:52:47.867Z,5.93
2017-09-07T17:55:15.321Z,5.30
2017-09-07T17:57:42.778Z,4.93
2017-09-07T18:00:10.207Z,4.77
2017-09-07T18:02:37.659Z,4.23
2017-09-07T18:05:05.872Z,4.03
2017-09-07T18:07:33.319Z,4.73
2017-09-07T18:10:00.811Z,5.37
2017-09-07T18:12:28.263Z,4.67
2017-09-07T18:14:55.759Z,4.87
2017-09-07T18:17:23.969Z,4.60
2017-09-07T18:19:51.454Z,4.57
2017-09-07T18:22:18.946Z,4.33
2017-09-07T18:24:47.198Z,5.03
2017-09-07T18:27:14.630Z,4.20
2017-09-07T18:29:42.130Z,3.30
2017-09-07T18:32:10.345Z,4.90
2017-09-07T18:34:37.834Z,3.60
2017-09-07T18:37:05.335Z,4.23
2017-09-07T18:39:32.827Z,4.10
2017-09-07T18:42:00.278Z,3.57
2017-09-07T18:44:27.770Z,4.20
2017-09-07T18:46:55.204Z,3.83
2017-09-07T18:49:22.651Z,4.10
2017-09-07T18:51:50.091Z,3.10
2017-09-07T18:54:17.551Z,3.73
2017-09-07T18:56:45.005Z,4.47
2017-09-07T18:59:12.461Z,4.27
2017-09-07T19:01:39.888Z,3.90
2017-09-07T19:04:07.343Z,3.90
2017-09-07T19:06:34.783Z,3.30
2017-09-07T19:09:02.269Z,3.80
2017-09-07T19:11:30.508Z,3.37
2017-09-07T19:13:57.939Z,3.77
2017-09-07T19:16:25.387Z,3.60
2017-09-07T19:18:52.831Z,3.40
2017-09-07T19:21:20.279Z,3.40
2017-09-07T19:23:47.714Z,4.00
2017-09-07T19:26:15.987Z,3.60
2017-09-07T19:28:44.194Z,3.53
2017-09-07T19:31:11.648Z,4.20
2017-09-07T19:33:39.101Z,3.20
2017-09-07T19:36:06.543Z,3.40
2017-09-07T19:38:33.980Z,3.80
2017-09-07T19:41:02.199Z,3.43
2017-09-07T19:43:29.695Z,4.60
2017-09-07T19:45:57.137Z,3.73
2017-09-07T19:48:24.617Z,3.90
2017-09-07T19:50:52.063Z,4.00
2017-09-07T19:53:19.503Z,4.17
2017-09-07T19:55:47.028Z,4.33
2017-09-07T19:58:14.464Z,4.30
2017-09-07T20:00:41.903Z,4.30
2017-09-07T20:03:10.113Z,4.17
2017-09-07T20:05:37.550Z,3.70
2017-09-07T20:08:05.013Z,4.37
2017-09-07T20:10:32.459Z,3.83
2017-09-07T20:12:59.903Z,4.30
2017-09-07T20:15:27.345Z,3.70
2017-09-07T20:17:55.556Z,4.03
2017-09-07T20:20:22.991Z,4.50
2017-09-07T20:22:51.210Z,4.20
2017-09-07T20:25:18.655Z,3.80
2017-09-07T20:27:46.144Z,4.37
2017-09-07T20:30:13.575Z,4.00
2017-09-07T20:32:41.020Z,3.77
2017-09-07T20:35:08.477Z,4.60
2017-09-07T20:37:35.927Z,4.00
2017-09-07T20:40:03.376Z,4.20
2017-09-07T20:42:30.812Z,4.43
2017-09-07T20:44:59.036Z,3.70
2017-09-07T20:47:27.243Z,4.43
2017-09-07T20:49:54.682Z,4.43
2017-09-07T20:52:22.132Z,4.00
2017-09-07T20:54:49.583Z,5.03
2017-09-07T20:57:17.028Z,3.90
2017-09-07T20:59:44.491Z,4.40
2017-09-07T21:02:11.924Z,5.27
2017-09-07T21:04:39.381Z,4.73
2017-09-07T21:07:06.820Z,4.23
2017-09-07T21:09:34.266Z,4.40
2017-09-07T21:12:02.466Z,3.80
2017-09-07T21:14:29.923Z,4.57
2017-09-07T21:16:57.359Z,4.70
2017-09-07T21:19:25.580Z,4.30
2017-09-07T21:21:53.214Z,4.37
2017-09-07T21:24:20.675Z,4.50
2017-09-07T21:26:48.125Z,4.70
2017-09-07T21:29:15.551Z,4.10
2017-09-07T21:31:43.763Z,4.80
2017-09-07T21:34:11.203Z,4.80
2017-09-07T21:36:38.647Z,4.43
2017-09-07T21:39:07.304Z,4.57
2017-09-07T21:41:34.788Z,5.07
2017-09-07T21:44:02.227Z,4.50
2017-09-07T21:46:30.442Z,4.40
2017-09-07T21:48:57.887Z,4.33
2017-09-07T21:51:25.342Z,4.57
2017-09-07T21:53:52.791Z,4.57
2017-09-07T21:56:20.235Z,3.53
2017-09-07T21:58:47.687Z,4.40
2017-09-07T22:01:15.904Z,4.17
2017-09-07T22:03:43.356Z,4.37
2017-09-07T22:06:11.331Z,4.37
2017-09-07T22:08:39.073Z,4.20
2017-09-07T22:11:06.523Z,4.27
2017-09-07T22:13:33.967Z,4.57
2017-09-07T22:16:01.416Z,5.00
2017-09-07T22:18:28.859Z,4.20
2017-09-07T22:20:56.304Z,4.90
2017-09-07T22:23:23.756Z,5.00
2017-09-07T22:25:51.199Z,5.10
2017-09-07T22:28:18.647Z,4.43
2017-09-07T22:30:46.088Z,4.37
2017-09-07T22:33:13.546Z,4.33
2017-09-07T22:35:41.793Z,4.60
2017-09-07T22:38:10.015Z,4.27
2017-09-07T22:40:37.464Z,3.77
2017-09-07T22:43:04.906Z,4.30
2017-09-07T22:45:32.364Z,5.20
2017-09-07T22:47:59.998Z,3.73
2017-09-07T22:50:27.427Z,4.77
2017-09-07T22:52:55.627Z,3.70
2017-09-07T22:55:23.071Z,3.67
2017-09-07T22:57:51.292Z,3.57
2017-09-07T23:00:18.748Z,3.53
2017-09-07T23:02:46.183Z,3.87
2017-09-07T23:05:13.652Z,3.60
2017-09-07T23:07:41.095Z,4.27
2017-09-07T23:10:08.664Z,4.83
2017-09-07T23:12:36.103Z,3.90
2017-09-07T23:15:03.551Z,3.80
2017-09-07T23:17:31.750Z,3.80
2017-09-07T23:19:59.219Z,3.67
2017-09-07T23:22:26.667Z,3.67
2017-09-07T23:24:54.113Z,3.67
2017-09-07T23:27:21.579Z,4.37
2017-09-07T23:29:49.020Z,3.80
2017-09-07T23:32:16.461Z,4.87
2017-09-07T23:34:44.664Z,4.30
2017-09-07T23:37:12.557Z,3.80
2017-09-07T23:39:40.430Z,3.33
2017-09-07T23:42:09.945Z,4.50
2017-09-07T23:44:37.387Z,3.53
2017-09-07T23:47:04.839Z,3.93
2017-09-07T23:49:32.279Z,3.70
2017-09-07T23:51:59.722Z,3.90
2017-09-07T23:54:27.179Z,4.23
2017-09-07T23:56:54.619Z,4.03
2017-09-07T23:59:22.054Z,4.07
